sensor_id;sensor_type;location;lat;lon;timestamp;P1;durP1;ratioP1;P2;durP2;ratioP2
41434;SDS011;27177;22.262;114.192;2022-11-20T00:01:12;27.25;;;20.92;;
41434;SDS011;27177;22.262;114.192;2022-11-20T00:03:40;32.72;;;22.73;;
41434;SDS011;27177;22.262;114.192;2022-11-20T00:06:12;25.48;;;21.08;;
41434;SDS011;27177;22.262;114.192;2022-11-20T00:08:40;28.10;;;22.55;;
41434;SDS011;27177;22.262;114.192;2022-11-20T00:11:08;28.27;;;21.23;;
41434;SDS011;27177;22.262;114.192;2022-11-20T00:13:40;31.17;;;23.05;;
41434;SDS011;27177;22.262;114.192;2022-11-20T00:16:08;33.00;;;21.10;;
41434;SDS011;27177;22.262;114.192;2022-11-20T00:18:36;30.00;;;22.23;;
41434;SDS011;27177;22.262;114.192;2022-11-20T00:21:04;31.27;;;23.02;;
41434;SDS011;27177;22.262;114.192;2022-11-20T00:23:32;35.60;;;23.38;;
41434;SDS011;27177;22.262;114.192;2022-11-20T00:28:35;28.83;;;22.85;;
41434;SDS011;27177;22.262;114.192;2022-11-20T00:31:06;32.15;;;22.02;;
41434;SDS011;27177;22.262;114.192;2022-11-20T00:33:35;31.65;;;23.10;;
41434;SDS011;27177;22.262;114.192;2022-11-20T00:36:03;32.20;;;23.13;;
41434;SDS011;27177;22.262;114.192;2022-11-20T00:38:32;30.83;;;22.80;;
41434;SDS011;27177;22.262;114.192;2022-11-20T00:41:00;35.10;;;22.67;;
41434;SDS011;27177;22.262;114.192;2022-11-20T00:43:28;28.35;;;22.67;;
41434;SDS011;27177;22.262;114.192;2022-11-20T00:45:59;30.23;;;22.88;;
41434;SDS011;27177;22.262;114.192;2022-11-20T00:48:26;32.22;;;24.30;;
41434;SDS011;27177;22.262;114.192;2022-11-20T00:50:53;35.83;;;25.42;;
41434;SDS011;27177;22.262;114.192;2022-11-20T00:53:20;33.03;;;22.38;;
41434;SDS011;27177;22.262;114.192;2022-11-20T00:58:28;34.60;;;25.70;;
41434;SDS011;27177;22.262;114.192;2022-11-20T01:01:04;32.17;;;23.42;;
41434;SDS011;27177;22.262;114.192;2022-11-20T01:03:33;28.70;;;22.42;;
41434;SDS011;27177;22.262;114.192;2022-11-20T01:11:13;36.03;;;23.75;;
41434;SDS011;27177;22.262;114.192;2022-11-20T01:13:43;30.05;;;21.92;;
41434;SDS011;27177;22.262;114.192;2022-11-20T01:16:15;32.00;;;22.83;;
41434;SDS011;27177;22.262;114.192;2022-11-20T01:23:53;28.15;;;22.13;;
41434;SDS011;27177;22.262;114.192;2022-11-20T01:31:35;30.60;;;22.38;;
41434;SDS011;27177;22.262;114.192;2022-11-20T01:57:37;26.70;;;20.90;;
41434;SDS011;27177;22.262;114.192;2022-11-20T02:02:42;29.88;;;21.27;;
41434;SDS011;27177;22.262;114.192;2022-11-20T02:32:10;28.08;;;21.20;;
41434;SDS011;27177;22.262;114.192;2022-11-20T02:40:04;25.42;;;20.40;;
41434;SDS011;27177;22.262;114.192;2022-11-20T02:42:41;30.13;;;21.23;;
41434;SDS011;27177;22.262;114.192;2022-11-20T02:45:08;23.33;;;19.23;;
41434;SDS011;27177;22.262;114.192;2022-11-20T02:47:36;26.48;;;21.02;;
41434;SDS011;27177;22.262;114.192;2022-11-20T02:55:13;26.08;;;19.33;;
41434;SDS011;27177;22.262;114.192;2022-11-20T02:57:40;26.50;;;21.02;;
41434;SDS011;27177;22.262;114.192;2022-11-20T03:05:18;27.45;;;19.73;;
41434;SDS011;27177;22.262;114.192;2022-11-20T03:07:45;29.85;;;19.83;;
41434;SDS011;27177;22.262;114.192;2022-11-20T03:10:12;23.73;;;20.23;;
41434;SDS011;27177;22.262;114.192;2022-11-20T03:15:14;25.08;;;20.38;;
41434;SDS011;27177;22.262;114.192;2022-11-20T03:17:41;24.02;;;19.15;;
41434;SDS011;27177;22.262;114.192;2022-11-20T03:20:07;27.30;;;20.58;;
41434;SDS011;27177;22.262;114.192;2022-11-20T03:22:34;25.08;;;19.77;;
41434;SDS011;27177;22.262;114.192;2022-11-20T03:25:01;24.85;;;19.23;;
41434;SDS011;27177;22.262;114.192;2022-11-20T03:27:31;23.50;;;18.85;;
41434;SDS011;27177;22.262;114.192;2022-11-20T03:30:01;28.63;;;19.27;;
41434;SDS011;27177;22.262;114.192;2022-11-20T03:32:28;21.75;;;18.75;;
41434;SDS011;27177;22.262;114.192;2022-11-20T03:39:57;27.10;;;19.38;;
41434;SDS011;27177;22.262;114.192;2022-11-20T03:42:24;24.85;;;19.63;;
41434;SDS011;27177;22.262;114.192;2022-11-20T03:45:09;24.58;;;20.40;;
41434;SDS011;27177;22.262;114.192;2022-11-20T03:47:36;24.50;;;19.05;;
41434;SDS011;27177;22.262;114.192;2022-11-20T03:50:03;22.40;;;18.90;;
41434;SDS011;27177;22.262;114.192;2022-11-20T03:52:30;25.13;;;19.65;;
41434;SDS011;27177;22.262;114.192;2022-11-20T03:54:56;26.35;;;20.95;;
41434;SDS011;27177;22.262;114.192;2022-11-20T03:57:23;25.13;;;19.70;;
41434;SDS011;27177;22.262;114.192;2022-11-20T03:59:50;27.02;;;21.92;;
41434;SDS011;27177;22.262;114.192;2022-11-20T04:04:44;27.27;;;20.02;;
41434;SDS011;27177;22.262;114.192;2022-11-20T04:07:10;25.95;;;20.40;;
41434;SDS011;27177;22.262;114.192;2022-11-20T04:09:37;27.05;;;20.50;;
41434;SDS011;27177;22.262;114.192;2022-11-20T04:12:04;28.02;;;21.42;;
41434;SDS011;27177;22.262;114.192;2022-11-20T04:14:32;27.27;;;21.38;;
41434;SDS011;27177;22.262;114.192;2022-11-20T04:16:58;28.67;;;21.70;;
41434;SDS011;27177;22.262;114.192;2022-11-20T04:19:25;28.92;;;20.02;;
41434;SDS011;27177;22.262;114.192;2022-11-20T04:21:52;28.77;;;19.42;;
41434;SDS011;27177;22.262;114.192;2022-11-20T04:24:19;20.80;;;18.13;;
41434;SDS011;27177;22.262;114.192;2022-11-20T04:26:45;22.85;;;19.17;;
41434;SDS011;27177;22.262;114.192;2022-11-20T04:29:12;25.88;;;19.88;;
41434;SDS011;27177;22.262;114.192;2022-11-20T04:31:39;24.75;;;18.67;;
41434;SDS011;27177;22.262;114.192;2022-11-20T04:34:06;27.08;;;20.75;;
41434;SDS011;27177;22.262;114.192;2022-11-20T04:41:56;22.65;;;18.75;;
41434;SDS011;27177;22.262;114.192;2022-11-20T04:44:41;21.40;;;18.00;;
41434;SDS011;27177;22.262;114.192;2022-11-20T04:47:07;23.98;;;18.30;;
41434;SDS011;27177;22.262;114.192;2022-11-20T04:49:34;25.13;;;19.70;;
41434;SDS011;27177;22.262;114.192;2022-11-20T04:52:01;25.50;;;18.85;;
41434;SDS011;27177;22.262;114.192;2022-11-20T04:54:27;21.73;;;18.08;;
41434;SDS011;27177;22.262;114.192;2022-11-20T04:56:56;24.85;;;18.10;;
41434;SDS011;27177;22.262;114.192;2022-11-20T04:59:23;21.88;;;18.50;;
41434;SDS011;27177;22.262;114.192;2022-11-20T05:04:25;22.70;;;17.15;;
41434;SDS011;27177;22.262;114.192;2022-11-20T05:06:52;19.27;;;16.55;;
41434;SDS011;27177;22.262;114.192;2022-11-20T05:09:18;22.00;;;16.95;;
41434;SDS011;27177;22.262;114.192;2022-11-20T05:11:45;21.70;;;16.42;;
41434;SDS011;27177;22.262;114.192;2022-11-20T05:14:12;20.10;;;16.85;;
41434;SDS011;27177;22.262;114.192;2022-11-20T05:16:39;22.77;;;17.50;;
41434;SDS011;27177;22.262;114.192;2022-11-20T05:19:05;27.20;;;18.08;;
41434;SDS011;27177;22.262;114.192;2022-11-20T05:21:32;23.65;;;17.75;;
41434;SDS011;27177;22.262;114.192;2022-11-20T05:23:59;22.90;;;17.70;;
41434;SDS011;27177;22.262;114.192;2022-11-20T05:26:26;20.80;;;17.00;;
41434;SDS011;27177;22.262;114.192;2022-11-20T05:28:52;23.38;;;17.52;;
41434;SDS011;27177;22.262;114.192;2022-11-20T05:31:20;19.38;;;16.42;;
41434;SDS011;27177;22.262;114.192;2022-11-20T05:33:48;22.83;;;17.52;;
41434;SDS011;27177;22.262;114.192;2022-11-20T05:41:21;21.77;;;17.20;;
41434;SDS011;27177;22.262;114.192;2022-11-20T05:51:34;21.10;;;15.95;;
41434;SDS011;27177;22.262;114.192;2022-11-20T05:54:03;19.85;;;15.63;;
41434;SDS011;27177;22.262;114.192;2022-11-20T05:56:30;18.77;;;15.82;;
41434;SDS011;27177;22.262;114.192;2022-11-20T06:01:34;18.92;;;14.23;;
41434;SDS011;27177;22.262;114.192;2022-11-20T06:04:01;20.30;;;15.23;;
41434;SDS011;27177;22.262;114.192;2022-11-20T06:06:28;17.45;;;14.52;;
41434;SDS011;27177;22.262;114.192;2022-11-20T06:08:55;21.73;;;15.27;;
41434;SDS011;27177;22.262;114.192;2022-11-20T06:11:24;19.45;;;14.73;;
41434;SDS011;27177;22.262;114.192;2022-11-20T06:13:51;19.85;;;14.65;;
41434;SDS011;27177;22.262;114.192;2022-11-20T06:16:18;23.02;;;15.98;;
41434;SDS011;27177;22.262;114.192;2022-11-20T06:18:47;19.17;;;15.00;;
41434;SDS011;27177;22.262;114.192;2022-11-20T06:21:15;20.75;;;15.02;;
41434;SDS011;27177;22.262;114.192;2022-11-20T06:23:49;20.48;;;15.00;;
41434;SDS011;27177;22.262;114.192;2022-11-20T06:31:24;22.38;;;14.82;;
41434;SDS011;27177;22.262;114.192;2022-11-20T06:44:12;21.70;;;16.58;;
41434;SDS011;27177;22.262;114.192;2022-11-20T06:49:15;21.40;;;17.48;;
41434;SDS011;27177;22.262;114.192;2022-11-20T06:51:42;20.83;;;16.88;;
41434;SDS011;27177;22.262;114.192;2022-11-20T06:54:09;24.00;;;17.75;;
41434;SDS011;27177;22.262;114.192;2022-11-20T06:56:35;20.65;;;16.50;;
41434;SDS011;27177;22.262;114.192;2022-11-20T07:01:37;21.20;;;17.60;;
41434;SDS011;27177;22.262;114.192;2022-11-20T07:04:04;24.00;;;19.00;;
41434;SDS011;27177;22.262;114.192;2022-11-20T07:06:31;23.70;;;18.00;;
41434;SDS011;27177;22.262;114.192;2022-11-20T07:11:27;24.42;;;17.92;;
41434;SDS011;27177;22.262;114.192;2022-11-20T07:13:54;25.17;;;17.95;;
41434;SDS011;27177;22.262;114.192;2022-11-20T07:16:22;23.50;;;18.25;;
41434;SDS011;27177;22.262;114.192;2022-11-20T07:44:34;25.13;;;17.77;;
41434;SDS011;27177;22.262;114.192;2022-11-20T07:47:01;25.15;;;18.27;;
41434;SDS011;27177;22.262;114.192;2022-11-20T07:49:28;23.75;;;18.90;;
41434;SDS011;27177;22.262;114.192;2022-11-20T07:51:54;23.13;;;18.13;;
41434;SDS011;27177;22.262;114.192;2022-11-20T08:00:31;23.77;;;18.85;;
41434;SDS011;27177;22.262;114.192;2022-11-20T08:02:57;20.17;;;16.65;;
41434;SDS011;27177;22.262;114.192;2022-11-20T08:05:31;22.73;;;18.35;;
41434;SDS011;27177;22.262;114.192;2022-11-20T08:07:58;23.13;;;17.60;;
41434;SDS011;27177;22.262;114.192;2022-11-20T08:10:25;24.60;;;17.63;;
41434;SDS011;27177;22.262;114.192;2022-11-20T08:15:27;23.27;;;17.92;;
41434;SDS011;27177;22.262;114.192;2022-11-20T08:20:30;27.38;;;20.52;;
41434;SDS011;27177;22.262;114.192;2022-11-20T08:25:32;21.80;;;16.40;;
41434;SDS011;27177;22.262;114.192;2022-11-20T08:28:03;21.83;;;16.15;;
41434;SDS011;27177;22.262;114.192;2022-11-20T08:38:20;23.05;;;17.90;;
41434;SDS011;27177;22.262;114.192;2022-11-20T08:40:48;25.50;;;16.65;;
41434;SDS011;27177;22.262;114.192;2022-11-20T08:43:35;21.27;;;16.48;;
41434;SDS011;27177;22.262;114.192;2022-11-20T08:46:01;25.80;;;18.83;;
41434;SDS011;27177;22.262;114.192;2022-11-20T08:51:03;22.98;;;17.83;;
41434;SDS011;27177;22.262;114.192;2022-11-20T08:53:30;21.75;;;16.45;;
41434;SDS011;27177;22.262;114.192;2022-11-20T08:55:57;26.13;;;17.08;;
41434;SDS011;27177;22.262;114.192;2022-11-20T09:00:59;21.25;;;17.52;;
41434;SDS011;27177;22.262;114.192;2022-11-20T09:03:26;20.55;;;16.23;;
41434;SDS011;27177;22.262;114.192;2022-11-20T09:05:59;19.60;;;15.43;;
41434;SDS011;27177;22.262;114.192;2022-11-20T09:13:42;23.40;;;17.52;;
41434;SDS011;27177;22.262;114.192;2022-11-20T09:16:09;19.52;;;15.80;;
41434;SDS011;27177;22.262;114.192;2022-11-20T09:18:36;18.85;;;15.77;;
41434;SDS011;27177;22.262;114.192;2022-11-20T09:21:05;25.98;;;16.42;;
41434;SDS011;27177;22.262;114.192;2022-11-20T09:23:35;19.77;;;15.95;;
41434;SDS011;27177;22.262;114.192;2022-11-20T09:26:03;20.42;;;15.15;;
41434;SDS011;27177;22.262;114.192;2022-11-20T09:28:35;20.45;;;15.25;;
41434;SDS011;27177;22.262;114.192;2022-11-20T09:31:06;24.77;;;15.60;;
41434;SDS011;27177;22.262;114.192;2022-11-20T09:33:43;20.45;;;15.23;;
41434;SDS011;27177;22.262;114.192;2022-11-20T09:36:10;18.55;;;15.25;;
41434;SDS011;27177;22.262;114.192;2022-11-20T09:38:37;22.88;;;16.27;;
41434;SDS011;27177;22.262;114.192;2022-11-20T09:41:04;18.48;;;15.48;;
41434;SDS011;27177;22.262;114.192;2022-11-20T09:56:45;19.83;;;14.20;;
41434;SDS011;27177;22.262;114.192;2022-11-20T09:59:32;19.08;;;15.13;;
41434;SDS011;27177;22.262;114.192;2022-11-20T10:04:51;19.83;;;15.60;;
41434;SDS011;27177;22.262;114.192;2022-11-20T10:10:43;22.27;;;15.98;;
41434;SDS011;27177;22.262;114.192;2022-11-20T10:16:27;18.95;;;14.20;;
41434;SDS011;27177;22.262;114.192;2022-11-20T10:19:21;19.92;;;15.07;;
41434;SDS011;27177;22.262;114.192;2022-11-20T10:22:14;26.48;;;16.17;;
41434;SDS011;27177;22.262;114.192;2022-11-20T10:25:40;18.80;;;14.57;;
41434;SDS011;27177;22.262;114.192;2022-11-20T10:31:13;23.48;;;16.27;;
41434;SDS011;27177;22.262;114.192;2022-11-20T10:33:50;18.95;;;14.68;;
41434;SDS011;27177;22.262;114.192;2022-11-20T10:42:31;20.67;;;14.98;;
41434;SDS011;27177;22.262;114.192;2022-11-20T10:45:20;22.85;;;14.48;;
41434;SDS011;27177;22.262;114.192;2022-11-20T10:50:56;20.90;;;15.00;;
41434;SDS011;27177;22.262;114.192;2022-11-20T11:01:38;19.90;;;13.48;;
41434;SDS011;27177;22.262;114.192;2022-11-20T11:07:15;18.23;;;12.93;;
41434;SDS011;27177;22.262;114.192;2022-11-20T11:12:13;16.73;;;12.15;;
41434;SDS011;27177;22.262;114.192;2022-11-20T11:14:58;22.92;;;13.32;;
41434;SDS011;27177;22.262;114.192;2022-11-20T11:22:29;16.60;;;11.95;;
41434;SDS011;27177;22.262;114.192;2022-11-20T11:30:40;18.25;;;12.40;;
41434;SDS011;27177;22.262;114.192;2022-11-20T11:33:23;18.08;;;11.93;;
41434;SDS011;27177;22.262;114.192;2022-11-20T11:35:53;18.38;;;11.43;;
41434;SDS011;27177;22.262;114.192;2022-11-20T11:43:36;17.08;;;11.25;;
41434;SDS011;27177;22.262;114.192;2022-11-20T11:59:44;17.90;;;10.48;;
41434;SDS011;27177;22.262;114.192;2022-11-20T12:02:31;15.88;;;10.15;;
41434;SDS011;27177;22.262;114.192;2022-11-20T12:07:59;13.45;;;9.80;;
41434;SDS011;27177;22.262;114.192;2022-11-20T12:13:21;16.42;;;9.43;;
41434;SDS011;27177;22.262;114.192;2022-11-20T12:18:41;14.02;;;9.45;;
41434;SDS011;27177;22.262;114.192;2022-11-20T12:37:08;12.98;;;9.13;;
41434;SDS011;27177;22.262;114.192;2022-11-20T12:39:41;12.70;;;9.25;;
41434;SDS011;27177;22.262;114.192;2022-11-20T12:42:22;17.08;;;9.93;;
41434;SDS011;27177;22.262;114.192;2022-11-20T12:45:19;18.75;;;10.20;;
41434;SDS011;27177;22.262;114.192;2022-11-20T12:51:10;15.65;;;10.55;;
41434;SDS011;27177;22.262;114.192;2022-11-20T12:54:15;16.20;;;11.40;;
41434;SDS011;27177;22.262;114.192;2022-11-20T13:07:48;16.42;;;10.93;;
41434;SDS011;27177;22.262;114.192;2022-11-20T13:12:56;16.88;;;10.63;;
41434;SDS011;27177;22.262;114.192;2022-11-20T13:18:01;18.50;;;11.07;;
41434;SDS011;27177;22.262;114.192;2022-11-20T13:20:30;19.80;;;10.55;;
41434;SDS011;27177;22.262;114.192;2022-11-20T13:23:00;16.38;;;11.20;;
41434;SDS011;27177;22.262;114.192;2022-11-20T13:25:28;15.85;;;11.50;;
41434;SDS011;27177;22.262;114.192;2022-11-20T13:28:26;18.63;;;11.07;;
41434;SDS011;27177;22.262;114.192;2022-11-20T13:30:51;17.85;;;12.15;;
41434;SDS011;27177;22.262;114.192;2022-11-20T13:33:23;16.58;;;10.95;;
41434;SDS011;27177;22.262;114.192;2022-11-20T13:36:04;17.17;;;10.60;;
41434;SDS011;27177;22.262;114.192;2022-11-20T13:41:30;15.15;;;11.68;;
41434;SDS011;27177;22.262;114.192;2022-11-20T13:46:40;21.05;;;10.25;;
41434;SDS011;27177;22.262;114.192;2022-11-20T13:49:18;19.95;;;12.23;;
41434;SDS011;27177;22.262;114.192;2022-11-20T13:51:54;16.35;;;9.98;;
41434;SDS011;27177;22.262;114.192;2022-11-20T14:02:37;16.55;;;11.32;;
41434;SDS011;27177;22.262;114.192;2022-11-20T14:05:04;16.98;;;11.00;;
41434;SDS011;27177;22.262;114.192;2022-11-20T14:07:39;17.13;;;11.50;;
41434;SDS011;27177;22.262;114.192;2022-11-20T14:10:20;14.85;;;10.13;;
41434;SDS011;27177;22.262;114.192;2022-11-20T14:12:52;16.42;;;10.65;;
41434;SDS011;27177;22.262;114.192;2022-11-20T14:15:27;14.32;;;10.48;;
41434;SDS011;27177;22.262;114.192;2022-11-20T14:17:56;14.63;;;11.10;;
41434;SDS011;27177;22.262;114.192;2022-11-20T14:20:27;13.50;;;9.25;;
41434;SDS011;27177;22.262;114.192;2022-11-20T14:22:56;17.65;;;9.75;;
41434;SDS011;27177;22.262;114.192;2022-11-20T14:25:24;15.75;;;10.32;;
41434;SDS011;27177;22.262;114.192;2022-11-20T14:27:57;16.45;;;10.10;;
41434;SDS011;27177;22.262;114.192;2022-11-20T14:30:29;16.23;;;9.65;;
41434;SDS011;27177;22.262;114.192;2022-11-20T14:33:09;16.52;;;9.65;;
41434;SDS011;27177;22.262;114.192;2022-11-20T14:35:45;17.58;;;10.52;;
41434;SDS011;27177;22.262;114.192;2022-11-20T14:38:15;13.55;;;9.27;;
41434;SDS011;27177;22.262;114.192;2022-11-20T14:40:48;15.45;;;10.30;;
41434;SDS011;27177;22.262;114.192;2022-11-20T14:43:19;17.55;;;10.50;;
41434;SDS011;27177;22.262;114.192;2022-11-20T14:48:46;18.77;;;10.40;;
41434;SDS011;27177;22.262;114.192;2022-11-20T14:51:31;17.30;;;10.40;;
41434;SDS011;27177;22.262;114.192;2022-11-20T14:59:21;14.50;;;10.15;;
41434;SDS011;27177;22.262;114.192;2022-11-20T15:02:04;18.48;;;10.05;;
41434;SDS011;27177;22.262;114.192;2022-11-20T15:04:44;12.20;;;9.40;;
41434;SDS011;27177;22.262;114.192;2022-11-20T15:07:27;15.20;;;9.40;;
41434;SDS011;27177;22.262;114.192;2022-11-20T15:10:06;13.60;;;9.20;;
41434;SDS011;27177;22.262;114.192;2022-11-20T15:12:46;12.48;;;8.73;;
41434;SDS011;27177;22.262;114.192;2022-11-20T15:15:24;17.55;;;10.52;;
41434;SDS011;27177;22.262;114.192;2022-11-20T15:18:13;14.15;;;9.20;;
41434;SDS011;27177;22.262;114.192;2022-11-20T15:20:41;10.73;;;8.00;;
41434;SDS011;27177;22.262;114.192;2022-11-20T15:23:11;16.17;;;7.85;;
41434;SDS011;27177;22.262;114.192;2022-11-20T15:25:40;16.60;;;9.00;;
41434;SDS011;27177;22.262;114.192;2022-11-20T15:28:13;14.82;;;8.48;;
41434;SDS011;27177;22.262;114.192;2022-11-20T15:30:44;15.52;;;7.85;;
41434;SDS011;27177;22.262;114.192;2022-11-20T15:33:12;17.48;;;10.48;;
41434;SDS011;27177;22.262;114.192;2022-11-20T15:35:39;13.52;;;8.00;;
41434;SDS011;27177;22.262;114.192;2022-11-20T15:38:06;12.57;;;7.45;;
41434;SDS011;27177;22.262;114.192;2022-11-20T15:40:33;17.33;;;8.57;;
41434;SDS011;27177;22.262;114.192;2022-11-20T15:43:00;19.17;;;9.00;;
41434;SDS011;27177;22.262;114.192;2022-11-20T15:45:31;11.00;;;7.75;;
41434;SDS011;27177;22.262;114.192;2022-11-20T15:48:18;14.48;;;8.43;;
41434;SDS011;27177;22.262;114.192;2022-11-20T15:53:39;12.85;;;8.02;;
41434;SDS011;27177;22.262;114.192;2022-11-20T15:56:11;13.18;;;8.50;;
41434;SDS011;27177;22.262;114.192;2022-11-20T15:58:38;11.15;;;8.68;;
41434;SDS011;27177;22.262;114.192;2022-11-20T16:01:16;12.63;;;7.40;;
41434;SDS011;27177;22.262;114.192;2022-11-20T16:03:44;13.23;;;7.97;;
41434;SDS011;27177;22.262;114.192;2022-11-20T16:06:11;9.82;;;6.72;;
41434;SDS011;27177;22.262;114.192;2022-11-20T16:08:38;14.23;;;7.85;;
41434;SDS011;27177;22.262;114.192;2022-11-20T16:11:05;14.43;;;7.63;;
41434;SDS011;27177;22.262;114.192;2022-11-20T16:13:31;10.55;;;7.05;;
41434;SDS011;27177;22.262;114.192;2022-11-20T16:16:21;11.82;;;7.43;;
41434;SDS011;27177;22.262;114.192;2022-11-20T16:19:00;13.32;;;7.05;;
41434;SDS011;27177;22.262;114.192;2022-11-20T16:21:27;10.25;;;6.70;;
41434;SDS011;27177;22.262;114.192;2022-11-20T16:24:03;17.02;;;7.88;;
41434;SDS011;27177;22.262;114.192;2022-11-20T16:26:32;14.13;;;7.70;;
41434;SDS011;27177;22.262;114.192;2022-11-20T16:28:59;13.13;;;6.57;;
41434;SDS011;27177;22.262;114.192;2022-11-20T16:31:27;10.75;;;6.00;;
41434;SDS011;27177;22.262;114.192;2022-11-20T16:33:55;8.23;;;5.85;;
41434;SDS011;27177;22.262;114.192;2022-11-20T16:36:24;12.50;;;6.47;;
41434;SDS011;27177;22.262;114.192;2022-11-20T16:38:53;14.00;;;6.88;;
41434;SDS011;27177;22.262;114.192;2022-11-20T16:41:22;9.05;;;6.40;;
41434;SDS011;27177;22.262;114.192;2022-11-20T16:43:58;12.93;;;6.95;;
41434;SDS011;27177;22.262;114.192;2022-11-20T16:46:27;9.60;;;6.03;;
41434;SDS011;27177;22.262;114.192;2022-11-20T16:48:56;10.68;;;7.68;;
41434;SDS011;27177;22.262;114.192;2022-11-20T16:51:25;12.40;;;7.05;;
41434;SDS011;27177;22.262;114.192;2022-11-20T16:53:53;13.20;;;7.38;;
41434;SDS011;27177;22.262;114.192;2022-11-20T16:56:21;10.98;;;7.03;;
41434;SDS011;27177;22.262;114.192;2022-11-20T16:58:50;12.23;;;6.85;;
41434;SDS011;27177;22.262;114.192;2022-11-20T17:01:19;15.52;;;7.30;;
41434;SDS011;27177;22.262;114.192;2022-11-20T17:04:01;12.60;;;7.03;;
41434;SDS011;27177;22.262;114.192;2022-11-20T17:06:30;8.82;;;6.88;;
41434;SDS011;27177;22.262;114.192;2022-11-20T17:09:01;10.77;;;6.63;;
41434;SDS011;27177;22.262;114.192;2022-11-20T17:11:28;17.30;;;7.30;;
41434;SDS011;27177;22.262;114.192;2022-11-20T17:13:56;10.93;;;6.78;;
41434;SDS011;27177;22.262;114.192;2022-11-20T17:16:31;11.10;;;6.80;;
41434;SDS011;27177;22.262;114.192;2022-11-20T17:19:00;10.75;;;7.38;;
41434;SDS011;27177;22.262;114.192;2022-11-20T17:21:32;11.32;;;6.70;;
41434;SDS011;27177;22.262;114.192;2022-11-20T17:24:13;14.15;;;7.40;;
41434;SDS011;27177;22.262;114.192;2022-11-20T17:26:41;11.55;;;8.50;;
41434;SDS011;27177;22.262;114.192;2022-11-20T17:29:15;9.82;;;7.35;;
41434;SDS011;27177;22.262;114.192;2022-11-20T17:31:45;13.23;;;8.10;;
41434;SDS011;27177;22.262;114.192;2022-11-20T17:34:13;10.48;;;7.70;;
41434;SDS011;27177;22.262;114.192;2022-11-20T17:36:42;12.50;;;7.57;;
41434;SDS011;27177;22.262;114.192;2022-11-20T17:39:14;14.77;;;7.97;;
41434;SDS011;27177;22.262;114.192;2022-11-20T17:41:42;12.35;;;7.88;;
41434;SDS011;27177;22.262;114.192;2022-11-20T17:44:09;9.73;;;7.75;;
41434;SDS011;27177;22.262;114.192;2022-11-20T17:46:37;9.38;;;7.65;;
41434;SDS011;27177;22.262;114.192;2022-11-20T17:49:04;12.88;;;7.80;;
41434;SDS011;27177;22.262;114.192;2022-11-20T17:51:32;13.18;;;7.65;;
41434;SDS011;27177;22.262;114.192;2022-11-20T17:54:07;15.35;;;7.93;;
41434;SDS011;27177;22.262;114.192;2022-11-20T17:56:35;12.35;;;7.93;;
41434;SDS011;27177;22.262;114.192;2022-11-20T17:59:20;11.95;;;8.15;;
41434;SDS011;27177;22.262;114.192;2022-11-20T18:01:49;13.30;;;7.78;;
41434;SDS011;27177;22.262;114.192;2022-11-20T18:04:16;12.57;;;7.60;;
41434;SDS011;27177;22.262;114.192;2022-11-20T18:06:43;10.57;;;7.55;;
41434;SDS011;27177;22.262;114.192;2022-11-20T18:09:10;12.68;;;8.85;;
41434;SDS011;27177;22.262;114.192;2022-11-20T18:11:38;13.02;;;7.80;;
41434;SDS011;27177;22.262;114.192;2022-11-20T18:16:43;11.15;;;6.72;;
41434;SDS011;27177;22.262;114.192;2022-11-20T18:21:47;10.02;;;6.80;;
41434;SDS011;27177;22.262;114.192;2022-11-20T18:24:13;11.45;;;7.28;;
41434;SDS011;27177;22.262;114.192;2022-11-20T18:26:40;15.30;;;7.47;;
41434;SDS011;27177;22.262;114.192;2022-11-20T18:34:17;15.75;;;7.15;;
41434;SDS011;27177;22.262;114.192;2022-11-20T18:36:45;9.02;;;6.10;;
41434;SDS011;27177;22.262;114.192;2022-11-20T18:39:12;10.05;;;6.43;;
41434;SDS011;27177;22.262;114.192;2022-11-20T18:41:39;10.32;;;6.63;;
41434;SDS011;27177;22.262;114.192;2022-11-20T18:44:26;10.25;;;7.68;;
41434;SDS011;27177;22.262;114.192;2022-11-20T18:47:09;16.57;;;8.03;;
41434;SDS011;27177;22.262;114.192;2022-11-20T18:49:37;10.27;;;7.28;;
41434;SDS011;27177;22.262;114.192;2022-11-20T18:52:04;11.35;;;7.47;;
41434;SDS011;27177;22.262;114.192;2022-11-20T18:59:36;17.27;;;9.23;;
41434;SDS011;27177;22.262;114.192;2022-11-20T19:02:02;13.45;;;7.78;;
41434;SDS011;27177;22.262;114.192;2022-11-20T19:04:31;15.57;;;9.90;;
41434;SDS011;27177;22.262;114.192;2022-11-20T19:07:01;14.77;;;10.05;;
41434;SDS011;27177;22.262;114.192;2022-11-20T19:12:01;17.35;;;10.82;;
41434;SDS011;27177;22.262;114.192;2022-11-20T19:14:27;18.08;;;10.88;;
41434;SDS011;27177;22.262;114.192;2022-11-20T19:16:54;19.90;;;11.43;;
41434;SDS011;27177;22.262;114.192;2022-11-20T19:19:21;14.00;;;9.65;;
41434;SDS011;27177;22.262;114.192;2022-11-20T19:27:00;15.80;;;10.75;;
41434;SDS011;27177;22.262;114.192;2022-11-20T19:29:27;17.38;;;11.10;;
41434;SDS011;27177;22.262;114.192;2022-11-20T19:34:29;13.02;;;10.02;;
41434;SDS011;27177;22.262;114.192;2022-11-20T19:36:56;15.77;;;10.77;;
41434;SDS011;27177;22.262;114.192;2022-11-20T19:39:32;17.95;;;10.70;;
41434;SDS011;27177;22.262;114.192;2022-11-20T19:52:22;21.45;;;11.93;;
41434;SDS011;27177;22.262;114.192;2022-11-20T19:57:34;19.95;;;12.45;;
41434;SDS011;27177;22.262;114.192;2022-11-20T20:02:36;18.83;;;11.80;;
41434;SDS011;27177;22.262;114.192;2022-11-20T20:07:52;19.40;;;12.30;;
41434;SDS011;27177;22.262;114.192;2022-11-20T20:15:28;12.80;;;9.75;;
41434;SDS011;27177;22.262;114.192;2022-11-20T20:17:54;19.83;;;11.55;;
41434;SDS011;27177;22.262;114.192;2022-11-20T20:20:21;24.75;;;11.55;;
41434;SDS011;27177;22.262;114.192;2022-11-20T20:22:50;18.70;;;11.60;;
41434;SDS011;27177;22.262;114.192;2022-11-20T20:25:17;17.60;;;11.32;;
41434;SDS011;27177;22.262;114.192;2022-11-20T20:27:44;15.10;;;12.40;;
41434;SDS011;27177;22.262;114.192;2022-11-20T20:32:46;16.83;;;11.80;;
41434;SDS011;27177;22.262;114.192;2022-11-20T20:35:13;18.23;;;12.25;;
41434;SDS011;27177;22.262;114.192;2022-11-20T20:37:39;20.17;;;12.43;;
41434;SDS011;27177;22.262;114.192;2022-11-20T20:40:06;21.85;;;12.05;;
41434;SDS011;27177;22.262;114.192;2022-11-20T20:42:34;19.05;;;11.38;;
41434;SDS011;27177;22.262;114.192;2022-11-20T20:45:01;15.68;;;10.68;;
41434;SDS011;27177;22.262;114.192;2022-11-20T20:52:43;12.60;;;9.65;;
41434;SDS011;27177;22.262;114.192;2022-11-20T20:55:10;13.60;;;9.85;;
41434;SDS011;27177;22.262;114.192;2022-11-20T20:57:37;11.57;;;10.02;;
41434;SDS011;27177;22.262;114.192;2022-11-20T21:00:04;18.45;;;10.45;;
41434;SDS011;27177;22.262;114.192;2022-11-20T21:02:32;14.73;;;10.13;;
41434;SDS011;27177;22.262;114.192;2022-11-20T21:04:58;16.65;;;10.85;;
41434;SDS011;27177;22.262;114.192;2022-11-20T21:07:25;13.45;;;10.23;;